TAF KLGA
KLGA 090533Z 0906/1012 31013G20KT P6SM FEW015 SCT035 FM091100 31010KT P6SM FEW250 FM092100 29006KT P6SM BKN250 FM100300 18006KT P6SM BKN100=
METAR KLGA
WC KLGA
WS KLGA
WV KLGA